Lake City, AR (72437)

7:22 AM CDT on September 02, 2014 (GMT -0500)
Jonesboro Municipal | Change Station
CLOSE
Current Station
Airport
Location: Jonesboro,
Elevation: 262 ft
Nearby Weather Stations

Elev 262 ft 35.83 °N, 90.65 °W | Updated 29 minutes ago

Mostly Cloudy
Mostly Cloudy
76 °F
Feels Like 76 °F
N
10
Wind Variable Wind from SW

Today
High -- | Low -- °F
--% Chance of Precip.
Yesterday
High -- | Low -- °F
Precip. -- in
6:34 AM 7:27 PM
Waxing Crescent, 51% visible
Pressure 29.99 in
Visibility 10.0 miles
Clouds Few 8500 ft
Mostly Cloudy 11000 ft
Dew Point 73 °F
Humidity 91%
Rainfall 0.00 in
Snow Depth Not available.
UV 0 out of 12
Pollen 10.40 out of 12
Air Quality Not available.
Flu Activity Not available.
METAR KJBR 021153Z AUTO 22009KT 10SM FEW085 BKN110 24/23 A3000 RMK AO2 SLP155 6//// 7//// T02440228 10267 20239 53009 PNO $

More Conditions Fewer Conditions

Pressure 29.99 in
Visibility 10.0 miles
Clouds Few 8500 ft
Mostly Cloudy 11000 ft
Dew Point 73 °F
Humidity 91%
Rainfall 0.00 in
Snow Depth Not available.
UV 0 out of 12
Pollen 10.40 out of 12
Air Quality Not available.
Flu Activity Not available.
METAR KJBR 021153Z AUTO 22009KT 10SM FEW085 BKN110 24/23 A3000 RMK AO2 SLP155 6//// 7//// T02440228 10267 20239 53009 PNO $

More Conditions Fewer Conditions

10-Day Weather Forecast

Almanac

Astronomy

Sep. 02, 2014 Rise Set
Actual Time 6:34 AM CDT 7:27 PM CDT
Civil Twilight 6:08 AM CDT 7:53 PM CDT
Nautical Twilight 5:37 AM CDT 8:24 PM CDT
Astronomical Twilight 5:05 AM CDT 8:56 PM CDT
Moon 2:05 PM CDT No Moon Set
Length of Visible Light 13h 45m
Length of Day
12h 53m
Tomorrow will be 2m 11s shorter.
Waxing Crescent, 51% of the Moon is Illuminated
Today
Waxing Crescent
Sep 8
Full
Sep 15
Last Quarter
Sep 24
New
Oct 1
First Quarter

Today's Extremes

State Highs State Lows

Community

WunderPhotos

Upload Photos

1,749,639 photos uploaded!

WunderBlogs® & News

By Dr. Jeff Masters
Director of Meteorology, Weather Underground
By Kari Strenfel
Meteorologist, Weather Underground
By Christopher C. Burt
Weather Historian, Weather Underground
September 2, 2014
September 2, 2014
September 2, 2014

Nearby

Snow Depth

Station Depth Elevation
No new snow has been reported.

Earthquake Activity

City Distance Mag. Time & Date
Tiptonville, Tennessee 64 miles 2.9 11:19 PM CDT
2014-08-31
Minimum magnitude displayed is 2.5.

Coastal Water Temperatures

Place Temperature
No Stations Reporting

Nearby Weather Stations